sensor_id;sensor_type;location;lat;lon;timestamp;temperature;humidity
354;DHT22;165;53.592;10.044;2022-07-11T00:00:07;13.30;99.90
354;DHT22;165;53.592;10.044;2022-07-11T00:02:34;13.20;99.90
354;DHT22;165;53.592;10.044;2022-07-11T00:04:59;13.20;99.90
354;DHT22;165;53.592;10.044;2022-07-11T00:07:27;13.20;99.90
354;DHT22;165;53.592;10.044;2022-07-11T00:09:52;13.20;99.90
354;DHT22;165;53.592;10.044;2022-07-11T00:12:18;13.20;99.90
354;DHT22;165;53.592;10.044;2022-07-11T00:14:46;13.20;99.90
354;DHT22;165;53.592;10.044;2022-07-11T00:17:11;13.10;99.90
354;DHT22;165;53.592;10.044;2022-07-11T00:19:37;13.10;99.90
354;DHT22;165;53.592;10.044;2022-07-11T00:22:03;13.10;99.90
354;DHT22;165;53.592;10.044;2022-07-11T00:24:29;13.10;99.90
354;DHT22;165;53.592;10.044;2022-07-11T00:26:54;13.10;99.90
354;DHT22;165;53.592;10.044;2022-07-11T00:29:20;13.10;99.90
354;DHT22;165;53.592;10.044;2022-07-11T00:31:46;13.10;99.90
354;DHT22;165;53.592;10.044;2022-07-11T00:34:11;13.00;99.90
354;DHT22;165;53.592;10.044;2022-07-11T00:36:37;13.00;99.90
354;DHT22;165;53.592;10.044;2022-07-11T00:39:02;13.00;99.90
354;DHT22;165;53.592;10.044;2022-07-11T00:41:28;12.90;99.90
354;DHT22;165;53.592;10.044;2022-07-11T00:43:55;12.90;99.90
354;DHT22;165;53.592;10.044;2022-07-11T00:46:22;12.90;99.90
354;DHT22;165;53.592;10.044;2022-07-11T00:48:48;12.90;99.90
354;DHT22;165;53.592;10.044;2022-07-11T00:51:14;12.90;99.90
354;DHT22;165;53.592;10.044;2022-07-11T00:53:41;12.90;99.90
354;DHT22;165;53.592;10.044;2022-07-11T00:56:07;12.90;99.90
354;DHT22;165;53.592;10.044;2022-07-11T00:58:35;12.80;99.90
354;DHT22;165;53.592;10.044;2022-07-11T01:01:01;12.90;99.90
354;DHT22;165;53.592;10.044;2022-07-11T01:03:27;12.80;99.90
354;DHT22;165;53.592;10.044;2022-07-11T01:05:52;12.80;99.90
354;DHT22;165;53.592;10.044;2022-07-11T01:08:18;12.80;99.90
354;DHT22;165;53.592;10.044;2022-07-11T01:10:43;12.80;99.90
354;DHT22;165;53.592;10.044;2022-07-11T01:13:09;12.80;99.90
354;DHT22;165;53.592;10.044;2022-07-11T01:15:35;12.80;99.90
354;DHT22;165;53.592;10.044;2022-07-11T01:18:04;12.80;99.90
354;DHT22;165;53.592;10.044;2022-07-11T01:20:30;12.80;99.90
354;DHT22;165;53.592;10.044;2022-07-11T01:23:02;12.80;99.90
354;DHT22;165;53.592;10.044;2022-07-11T01:25:27;12.70;99.90
354;DHT22;165;53.592;10.044;2022-07-11T01:28:04;12.70;99.90
354;DHT22;165;53.592;10.044;2022-07-11T01:30:32;12.70;99.90
354;DHT22;165;53.592;10.044;2022-07-11T01:32:58;12.70;99.90
354;DHT22;165;53.592;10.044;2022-07-11T01:35:25;12.60;99.90
354;DHT22;165;53.592;10.044;2022-07-11T01:37:50;12.60;99.90
354;DHT22;165;53.592;10.044;2022-07-11T01:40:16;12.60;99.90
354;DHT22;165;53.592;10.044;2022-07-11T01:42:42;12.60;99.90
354;DHT22;165;53.592;10.044;2022-07-11T01:45:09;12.50;99.90
354;DHT22;165;53.592;10.044;2022-07-11T01:47:35;12.60;99.90
354;DHT22;165;53.592;10.044;2022-07-11T01:50:01;12.50;99.90
354;DHT22;165;53.592;10.044;2022-07-11T01:52:27;12.40;99.90
354;DHT22;165;53.592;10.044;2022-07-11T01:54:53;12.50;99.90
354;DHT22;165;53.592;10.044;2022-07-11T01:57:19;12.50;99.90
354;DHT22;165;53.592;10.044;2022-07-11T01:59:44;12.40;99.90
354;DHT22;165;53.592;10.044;2022-07-11T02:02:10;12.50;99.90
354;DHT22;165;53.592;10.044;2022-07-11T02:04:35;12.50;99.90
354;DHT22;165;53.592;10.044;2022-07-11T02:07:01;12.50;99.90
354;DHT22;165;53.592;10.044;2022-07-11T02:09:26;12.60;99.90
354;DHT22;165;53.592;10.044;2022-07-11T02:11:52;12.60;99.90
354;DHT22;165;53.592;10.044;2022-07-11T02:14:17;12.70;99.90
354;DHT22;165;53.592;10.044;2022-07-11T02:16:43;12.80;99.90
354;DHT22;165;53.592;10.044;2022-07-11T02:19:08;12.90;99.90
354;DHT22;165;53.592;10.044;2022-07-11T02:21:36;13.00;99.90
354;DHT22;165;53.592;10.044;2022-07-11T02:24:02;13.00;99.90
354;DHT22;165;53.592;10.044;2022-07-11T02:26:28;13.10;99.90
354;DHT22;165;53.592;10.044;2022-07-11T02:28:53;13.10;99.90
354;DHT22;165;53.592;10.044;2022-07-11T02:31:19;13.10;99.90
354;DHT22;165;53.592;10.044;2022-07-11T02:33:45;13.10;99.90
354;DHT22;165;53.592;10.044;2022-07-11T02:36:10;13.00;99.90
354;DHT22;165;53.592;10.044;2022-07-11T02:38:36;12.90;99.90
354;DHT22;165;53.592;10.044;2022-07-11T02:41:02;12.80;99.90
354;DHT22;165;53.592;10.044;2022-07-11T02:43:27;12.70;99.90
354;DHT22;165;53.592;10.044;2022-07-11T02:45:53;12.60;99.90
354;DHT22;165;53.592;10.044;2022-07-11T02:48:19;12.60;99.90
354;DHT22;165;53.592;10.044;2022-07-11T02:50:45;12.50;99.90
354;DHT22;165;53.592;10.044;2022-07-11T02:53:11;12.50;99.90
354;DHT22;165;53.592;10.044;2022-07-11T02:55:36;12.40;99.90
354;DHT22;165;53.592;10.044;2022-07-11T02:58:02;12.40;99.90
354;DHT22;165;53.592;10.044;2022-07-11T03:00:27;12.30;99.90
354;DHT22;165;53.592;10.044;2022-07-11T03:02:53;12.30;99.90
354;DHT22;165;53.592;10.044;2022-07-11T03:05:19;12.30;99.90
354;DHT22;165;53.592;10.044;2022-07-11T03:07:44;12.30;99.90
354;DHT22;165;53.592;10.044;2022-07-11T03:10:10;12.30;99.90
354;DHT22;165;53.592;10.044;2022-07-11T03:12:36;12.30;99.90
354;DHT22;165;53.592;10.044;2022-07-11T03:15:02;12.30;99.90
354;DHT22;165;53.592;10.044;2022-07-11T03:17:28;12.30;99.90
354;DHT22;165;53.592;10.044;2022-07-11T03:19:54;12.30;99.90
354;DHT22;165;53.592;10.044;2022-07-11T03:22:20;12.30;99.90
354;DHT22;165;53.592;10.044;2022-07-11T03:24:46;12.30;99.90
354;DHT22;165;53.592;10.044;2022-07-11T03:27:12;12.30;99.90
354;DHT22;165;53.592;10.044;2022-07-11T03:29:37;12.30;99.90
354;DHT22;165;53.592;10.044;2022-07-11T03:32:03;12.30;99.90
354;DHT22;165;53.592;10.044;2022-07-11T03:34:28;12.30;99.90
354;DHT22;165;53.592;10.044;2022-07-11T03:36:54;12.30;99.90
354;DHT22;165;53.592;10.044;2022-07-11T03:39:20;12.30;99.90
354;DHT22;165;53.592;10.044;2022-07-11T03:41:48;12.30;99.90
354;DHT22;165;53.592;10.044;2022-07-11T03:44:14;12.30;99.90
354;DHT22;165;53.592;10.044;2022-07-11T03:46:39;12.30;99.90
354;DHT22;165;53.592;10.044;2022-07-11T03:49:05;12.30;99.90
354;DHT22;165;53.592;10.044;2022-07-11T03:51:30;12.30;99.90
354;DHT22;165;53.592;10.044;2022-07-11T03:53:56;12.30;99.90
354;DHT22;165;53.592;10.044;2022-07-11T03:56:22;12.30;99.90
354;DHT22;165;53.592;10.044;2022-07-11T03:58:50;12.40;99.90
354;DHT22;165;53.592;10.044;2022-07-11T04:01:16;12.40;99.90
354;DHT22;165;53.592;10.044;2022-07-11T04:03:41;12.40;99.90
354;DHT22;165;53.592;10.044;2022-07-11T04:06:07;12.50;99.90
354;DHT22;165;53.592;10.044;2022-07-11T04:08:33;12.50;99.90
354;DHT22;165;53.592;10.044;2022-07-11T04:10:58;12.60;99.90
354;DHT22;165;53.592;10.044;2022-07-11T04:13:24;12.60;99.90
354;DHT22;165;53.592;10.044;2022-07-11T04:15:50;12.70;99.90
354;DHT22;165;53.592;10.044;2022-07-11T04:18:15;12.70;99.90
354;DHT22;165;53.592;10.044;2022-07-11T04:20:40;12.80;99.90
354;DHT22;165;53.592;10.044;2022-07-11T04:23:06;12.90;99.90
354;DHT22;165;53.592;10.044;2022-07-11T04:25:33;12.90;99.90
354;DHT22;165;53.592;10.044;2022-07-11T04:27:59;13.00;99.90
354;DHT22;165;53.592;10.044;2022-07-11T04:30:25;13.00;99.90
354;DHT22;165;53.592;10.044;2022-07-11T04:32:50;13.10;99.90
354;DHT22;165;53.592;10.044;2022-07-11T04:35:16;13.10;99.90
354;DHT22;165;53.592;10.044;2022-07-11T04:37:42;13.10;99.90
354;DHT22;165;53.592;10.044;2022-07-11T04:40:09;13.30;99.90
354;DHT22;165;53.592;10.044;2022-07-11T04:42:34;13.30;99.90
354;DHT22;165;53.592;10.044;2022-07-11T04:45:00;13.40;99.90
354;DHT22;165;53.592;10.044;2022-07-11T04:47:25;13.50;99.90
354;DHT22;165;53.592;10.044;2022-07-11T04:49:51;13.60;99.90
354;DHT22;165;53.592;10.044;2022-07-11T04:52:16;13.60;99.90
354;DHT22;165;53.592;10.044;2022-07-11T04:54:42;13.70;99.90
354;DHT22;165;53.592;10.044;2022-07-11T04:57:08;13.80;99.90
354;DHT22;165;53.592;10.044;2022-07-11T04:59:33;13.80;99.90
354;DHT22;165;53.592;10.044;2022-07-11T05:01:59;13.90;99.90
354;DHT22;165;53.592;10.044;2022-07-11T05:04:24;14.00;99.90
354;DHT22;165;53.592;10.044;2022-07-11T05:06:50;14.10;99.90
354;DHT22;165;53.592;10.044;2022-07-11T05:09:15;14.10;99.90
354;DHT22;165;53.592;10.044;2022-07-11T05:11:41;14.20;99.90
354;DHT22;165;53.592;10.044;2022-07-11T05:14:06;14.30;99.90
354;DHT22;165;53.592;10.044;2022-07-11T05:16:32;14.50;99.90
354;DHT22;165;53.592;10.044;2022-07-11T05:18:57;15.20;99.90
354;DHT22;165;53.592;10.044;2022-07-11T05:21:22;17.00;99.90
354;DHT22;165;53.592;10.044;2022-07-11T05:23:49;19.10;99.90
354;DHT22;165;53.592;10.044;2022-07-11T05:26:15;21.00;99.90
354;DHT22;165;53.592;10.044;2022-07-11T05:28:41;22.30;99.90
354;DHT22;165;53.592;10.044;2022-07-11T05:31:07;23.40;99.90
354;DHT22;165;53.592;10.044;2022-07-11T05:33:32;24.10;99.90
354;DHT22;165;53.592;10.044;2022-07-11T05:36:00;24.80;99.70
354;DHT22;165;53.592;10.044;2022-07-11T05:38:26;25.60;96.30
354;DHT22;165;53.592;10.044;2022-07-11T05:40:51;26.30;94.10
354;DHT22;165;53.592;10.044;2022-07-11T05:43:17;26.70;90.80
354;DHT22;165;53.592;10.044;2022-07-11T05:45:43;27.10;88.60
354;DHT22;165;53.592;10.044;2022-07-11T05:48:08;27.30;84.40
354;DHT22;165;53.592;10.044;2022-07-11T05:50:34;27.70;82.10
354;DHT22;165;53.592;10.044;2022-07-11T05:53:00;27.90;81.30
354;DHT22;165;53.592;10.044;2022-07-11T05:55:28;28.00;77.50
354;DHT22;165;53.592;10.044;2022-07-11T05:57:53;28.80;76.30
354;DHT22;165;53.592;10.044;2022-07-11T06:00:19;29.70;71.60
354;DHT22;165;53.592;10.044;2022-07-11T06:02:45;29.80;67.60
354;DHT22;165;53.592;10.044;2022-07-11T06:05:12;30.10;67.00
354;DHT22;165;53.592;10.044;2022-07-11T06:07:38;30.30;63.70
354;DHT22;165;53.592;10.044;2022-07-11T06:10:22;30.20;63.00
354;DHT22;165;53.592;10.044;2022-07-11T06:12:47;30.10;62.00
354;DHT22;165;53.592;10.044;2022-07-11T06:15:13;30.10;61.10
354;DHT22;165;53.592;10.044;2022-07-11T06:17:38;30.20;61.30
354;DHT22;165;53.592;10.044;2022-07-11T06:20:04;30.90;60.20
354;DHT22;165;53.592;10.044;2022-07-11T06:22:30;30.90;58.30
354;DHT22;165;53.592;10.044;2022-07-11T06:24:56;31.50;57.60
354;DHT22;165;53.592;10.044;2022-07-11T06:27:21;32.00;56.80
354;DHT22;165;53.592;10.044;2022-07-11T06:29:47;32.30;55.00
354;DHT22;165;53.592;10.044;2022-07-11T06:32:12;32.40;54.70
354;DHT22;165;53.592;10.044;2022-07-11T06:34:38;32.60;53.40
354;DHT22;165;53.592;10.044;2022-07-11T06:37:04;32.40;53.40
354;DHT22;165;53.592;10.044;2022-07-11T06:39:29;32.30;52.90
354;DHT22;165;53.592;10.044;2022-07-11T06:41:55;32.30;52.60
354;DHT22;165;53.592;10.044;2022-07-11T06:44:20;31.70;52.80
354;DHT22;165;53.592;10.044;2022-07-11T06:46:46;32.20;52.30
354;DHT22;165;53.592;10.044;2022-07-11T06:49:11;32.00;51.90
354;DHT22;165;53.592;10.044;2022-07-11T06:51:38;31.80;51.90
354;DHT22;165;53.592;10.044;2022-07-11T06:54:04;31.40;53.60
354;DHT22;165;53.592;10.044;2022-07-11T06:56:30;31.40;52.80
354;DHT22;165;53.592;10.044;2022-07-11T06:58:55;30.90;53.90
354;DHT22;165;53.592;10.044;2022-07-11T07:01:21;31.60;53.30
354;DHT22;165;53.592;10.044;2022-07-11T07:03:46;32.40;51.70
354;DHT22;165;53.592;10.044;2022-07-11T07:06:12;31.40;51.70
354;DHT22;165;53.592;10.044;2022-07-11T07:08:37;29.80;54.40
354;DHT22;165;53.592;10.044;2022-07-11T07:11:03;28.40;56.90
354;DHT22;165;53.592;10.044;2022-07-11T07:13:29;27.10;59.00
354;DHT22;165;53.592;10.044;2022-07-11T07:15:55;26.20;62.80
354;DHT22;165;53.592;10.044;2022-07-11T07:18:23;26.80;61.20
354;DHT22;165;53.592;10.044;2022-07-11T07:20:49;26.70;60.40
354;DHT22;165;53.592;10.044;2022-07-11T07:23:15;27.00;62.30
354;DHT22;165;53.592;10.044;2022-07-11T07:25:42;28.70;58.90
354;DHT22;165;53.592;10.044;2022-07-11T07:28:07;30.70;55.30
354;DHT22;165;53.592;10.044;2022-07-11T07:30:33;31.60;52.50
354;DHT22;165;53.592;10.044;2022-07-11T07:32:59;32.60;51.20
354;DHT22;165;53.592;10.044;2022-07-11T07:35:26;32.30;50.60
354;DHT22;165;53.592;10.044;2022-07-11T07:37:51;31.90;51.50
354;DHT22;165;53.592;10.044;2022-07-11T07:40:17;31.80;51.70
354;DHT22;165;53.592;10.044;2022-07-11T07:42:42;30.80;52.20
354;DHT22;165;53.592;10.044;2022-07-11T07:45:09;30.80;53.00
354;DHT22;165;53.592;10.044;2022-07-11T07:47:35;30.40;54.00
354;DHT22;165;53.592;10.044;2022-07-11T07:50:02;30.80;52.90
354;DHT22;165;53.592;10.044;2022-07-11T07:52:27;29.50;54.10
354;DHT22;165;53.592;10.044;2022-07-11T07:54:53;29.60;55.40
354;DHT22;165;53.592;10.044;2022-07-11T07:57:18;31.10;53.50
354;DHT22;165;53.592;10.044;2022-07-11T07:59:44;32.80;51.50
354;DHT22;165;53.592;10.044;2022-07-11T08:02:09;34.20;48.80
354;DHT22;165;53.592;10.044;2022-07-11T08:04:35;34.40;47.90
354;DHT22;165;53.592;10.044;2022-07-11T08:07:02;34.40;47.50
354;DHT22;165;53.592;10.044;2022-07-11T08:09:27;34.60;46.60
354;DHT22;165;53.592;10.044;2022-07-11T08:11:54;34.80;45.90
354;DHT22;165;53.592;10.044;2022-07-11T08:14:19;35.10;46.00
354;DHT22;165;53.592;10.044;2022-07-11T08:16:46;34.70;45.10
354;DHT22;165;53.592;10.044;2022-07-11T08:19:13;33.10;47.50
354;DHT22;165;53.592;10.044;2022-07-11T08:21:39;32.90;48.50
354;DHT22;165;53.592;10.044;2022-07-11T08:24:05;33.70;47.30
354;DHT22;165;53.592;10.044;2022-07-11T08:26:31;33.50;46.90
354;DHT22;165;53.592;10.044;2022-07-11T08:28:57;33.70;46.80
354;DHT22;165;53.592;10.044;2022-07-11T08:31:23;34.10;46.40
354;DHT22;165;53.592;10.044;2022-07-11T08:33:49;35.10;44.30
354;DHT22;165;53.592;10.044;2022-07-11T08:36:14;35.20;44.20
354;DHT22;165;53.592;10.044;2022-07-11T08:38:40;35.70;43.00
354;DHT22;165;53.592;10.044;2022-07-11T08:41:11;36.00;42.80
354;DHT22;165;53.592;10.044;2022-07-11T08:43:36;36.50;41.90
354;DHT22;165;53.592;10.044;2022-07-11T08:46:02;35.30;42.50
354;DHT22;165;53.592;10.044;2022-07-11T08:48:28;33.30;44.00
354;DHT22;165;53.592;10.044;2022-07-11T08:50:55;33.20;45.20
354;DHT22;165;53.592;10.044;2022-07-11T08:53:21;34.20;43.70
354;DHT22;165;53.592;10.044;2022-07-11T08:55:46;34.90;42.70
354;DHT22;165;53.592;10.044;2022-07-11T08:58:13;35.50;42.50
354;DHT22;165;53.592;10.044;2022-07-11T09:00:41;35.90;41.70
354;DHT22;165;53.592;10.044;2022-07-11T09:03:13;36.00;41.30
354;DHT22;165;53.592;10.044;2022-07-11T09:05:39;35.90;41.30
354;DHT22;165;53.592;10.044;2022-07-11T09:08:05;34.50;42.20
354;DHT22;165;53.592;10.044;2022-07-11T09:10:30;33.20;44.00
354;DHT22;165;53.592;10.044;2022-07-11T09:13:10;33.70;43.60
354;DHT22;165;53.592;10.044;2022-07-11T09:15:42;34.30;42.80
354;DHT22;165;53.592;10.044;2022-07-11T09:20:58;35.40;41.40
354;DHT22;165;53.592;10.044;2022-07-11T09:23:44;33.70;43.80
354;DHT22;165;53.592;10.044;2022-07-11T09:26:32;32.10;46.10
354;DHT22;165;53.592;10.044;2022-07-11T09:31:27;31.60;46.90
354;DHT22;165;53.592;10.044;2022-07-11T09:34:03;32.70;46.00
354;DHT22;165;53.592;10.044;2022-07-11T09:36:39;33.30;43.90
354;DHT22;165;53.592;10.044;2022-07-11T09:39:07;32.20;45.70
354;DHT22;165;53.592;10.044;2022-07-11T09:41:35;32.70;45.60
354;DHT22;165;53.592;10.044;2022-07-11T09:46:33;31.30;46.50
354;DHT22;165;53.592;10.044;2022-07-11T09:49:02;31.00;47.60
354;DHT22;165;53.592;10.044;2022-07-11T09:51:28;32.80;45.00
354;DHT22;165;53.592;10.044;2022-07-11T09:53:54;34.20;42.40
354;DHT22;165;53.592;10.044;2022-07-11T09:56:43;35.80;40.90
354;DHT22;165;53.592;10.044;2022-07-11T09:59:12;36.70;39.60
354;DHT22;165;53.592;10.044;2022-07-11T10:01:41;37.30;39.30
354;DHT22;165;53.592;10.044;2022-07-11T10:04:08;37.20;38.40
354;DHT22;165;53.592;10.044;2022-07-11T10:06:36;37.50;37.30
354;DHT22;165;53.592;10.044;2022-07-11T10:09:05;37.00;38.20
354;DHT22;165;53.592;10.044;2022-07-11T10:11:34;38.50;36.60
354;DHT22;165;53.592;10.044;2022-07-11T10:14:03;38.50;36.70
354;DHT22;165;53.592;10.044;2022-07-11T10:17:05;36.80;38.00
354;DHT22;165;53.592;10.044;2022-07-11T10:24:56;29.90;47.60
354;DHT22;165;53.592;10.044;2022-07-11T10:29:59;32.60;45.20
354;DHT22;165;53.592;10.044;2022-07-11T10:32:26;34.70;43.20
354;DHT22;165;53.592;10.044;2022-07-11T10:35:06;36.70;39.50
354;DHT22;165;53.592;10.044;2022-07-11T10:37:46;35.00;40.50
354;DHT22;165;53.592;10.044;2022-07-11T10:40:12;34.60;39.40
354;DHT22;165;53.592;10.044;2022-07-11T10:42:39;34.30;39.90
354;DHT22;165;53.592;10.044;2022-07-11T10:45:10;34.90;40.00
354;DHT22;165;53.592;10.044;2022-07-11T10:47:43;32.80;41.70
354;DHT22;165;53.592;10.044;2022-07-11T10:52:49;33.10;41.80
354;DHT22;165;53.592;10.044;2022-07-11T11:00:35;35.90;38.60
354;DHT22;165;53.592;10.044;2022-07-11T11:10:58;36.40;37.20
354;DHT22;165;53.592;10.044;2022-07-11T11:13:25;36.60;36.00
354;DHT22;165;53.592;10.044;2022-07-11T11:15:54;36.60;37.10
354;DHT22;165;53.592;10.044;2022-07-11T11:23:33;33.20;40.60
354;DHT22;165;53.592;10.044;2022-07-11T11:28:34;29.60;46.00
354;DHT22;165;53.592;10.044;2022-07-11T11:31:03;28.70;47.30
354;DHT22;165;53.592;10.044;2022-07-11T11:33:32;28.10;49.60
354;DHT22;165;53.592;10.044;2022-07-11T11:36:07;27.70;50.50
354;DHT22;165;53.592;10.044;2022-07-11T11:38:37;27.10;52.20
354;DHT22;165;53.592;10.044;2022-07-11T11:41:05;26.70;52.70
354;DHT22;165;53.592;10.044;2022-07-11T11:43:32;26.50;53.60
354;DHT22;165;53.592;10.044;2022-07-11T11:45:57;26.10;54.40
354;DHT22;165;53.592;10.044;2022-07-11T11:48:34;25.90;55.30
354;DHT22;165;53.592;10.044;2022-07-11T11:51:07;26.20;54.80
354;DHT22;165;53.592;10.044;2022-07-11T11:53:40;26.30;53.70
354;DHT22;165;53.592;10.044;2022-07-11T11:56:21;26.40;52.20
354;DHT22;165;53.592;10.044;2022-07-11T11:58:48;26.60;53.90
354;DHT22;165;53.592;10.044;2022-07-11T12:01:20;26.80;52.40
354;DHT22;165;53.592;10.044;2022-07-11T12:03:57;26.90;53.30
354;DHT22;165;53.592;10.044;2022-07-11T12:06:24;26.80;53.60
354;DHT22;165;53.592;10.044;2022-07-11T12:08:52;26.60;53.90
354;DHT22;165;53.592;10.044;2022-07-11T12:11:23;26.50;54.30
354;DHT22;165;53.592;10.044;2022-07-11T12:13:58;26.30;55.50
354;DHT22;165;53.592;10.044;2022-07-11T12:16:25;26.10;56.20
354;DHT22;165;53.592;10.044;2022-07-11T12:19:17;26.00;56.20
354;DHT22;165;53.592;10.044;2022-07-11T12:21:45;26.00;56.40
354;DHT22;165;53.592;10.044;2022-07-11T12:24:14;26.00;54.90
354;DHT22;165;53.592;10.044;2022-07-11T12:26:42;25.80;55.70
354;DHT22;165;53.592;10.044;2022-07-11T12:31:49;25.50;55.30
354;DHT22;165;53.592;10.044;2022-07-11T12:34:17;25.60;54.00
354;DHT22;165;53.592;10.044;2022-07-11T12:36:43;25.50;54.40
354;DHT22;165;53.592;10.044;2022-07-11T12:39:24;25.60;54.30
354;DHT22;165;53.592;10.044;2022-07-11T12:41:56;25.60;53.50
354;DHT22;165;53.592;10.044;2022-07-11T12:44:26;25.80;54.10
354;DHT22;165;53.592;10.044;2022-07-11T12:47:11;25.90;53.90
354;DHT22;165;53.592;10.044;2022-07-11T12:49:37;25.90;54.70
354;DHT22;165;53.592;10.044;2022-07-11T12:52:07;26.00;54.30
354;DHT22;165;53.592;10.044;2022-07-11T12:54:33;26.00;54.00
354;DHT22;165;53.592;10.044;2022-07-11T12:56:59;26.30;55.00
354;DHT22;165;53.592;10.044;2022-07-11T12:59:30;26.30;55.50
354;DHT22;165;53.592;10.044;2022-07-11T13:02:04;26.20;56.50
354;DHT22;165;53.592;10.044;2022-07-11T13:04:39;26.20;56.30
354;DHT22;165;53.592;10.044;2022-07-11T13:07:24;26.50;55.70
354;DHT22;165;53.592;10.044;2022-07-11T13:10:26;26.20;56.10
354;DHT22;165;53.592;10.044;2022-07-11T13:13:13;25.60;57.00
354;DHT22;165;53.592;10.044;2022-07-11T13:15:39;25.40;58.00
354;DHT22;165;53.592;10.044;2022-07-11T13:18:05;25.20;58.30
354;DHT22;165;53.592;10.044;2022-07-11T13:20:31;25.20;58.30
354;DHT22;165;53.592;10.044;2022-07-11T13:22:58;25.00;57.00
354;DHT22;165;53.592;10.044;2022-07-11T13:25:24;24.60;57.80
354;DHT22;165;53.592;10.044;2022-07-11T13:27:50;24.40;58.20
354;DHT22;165;53.592;10.044;2022-07-11T13:30:18;24.40;57.60
354;DHT22;165;53.592;10.044;2022-07-11T13:32:47;24.70;56.50
354;DHT22;165;53.592;10.044;2022-07-11T13:35:13;24.80;56.00
354;DHT22;165;53.592;10.044;2022-07-11T13:37:40;24.90;56.70
354;DHT22;165;53.592;10.044;2022-07-11T13:40:11;25.00;57.30
354;DHT22;165;53.592;10.044;2022-07-11T13:42:40;25.00;57.30
354;DHT22;165;53.592;10.044;2022-07-11T13:45:08;25.10;57.10
354;DHT22;165;53.592;10.044;2022-07-11T13:47:34;25.20;57.60
354;DHT22;165;53.592;10.044;2022-07-11T13:50:11;25.30;57.90
354;DHT22;165;53.592;10.044;2022-07-11T13:52:36;25.40;56.80
354;DHT22;165;53.592;10.044;2022-07-11T13:55:02;25.40;55.30
354;DHT22;165;53.592;10.044;2022-07-11T13:57:28;25.40;55.50
354;DHT22;165;53.592;10.044;2022-07-11T13:59:54;25.40;55.40
354;DHT22;165;53.592;10.044;2022-07-11T14:02:21;25.10;57.90
354;DHT22;165;53.592;10.044;2022-07-11T14:04:48;25.00;59.40
354;DHT22;165;53.592;10.044;2022-07-11T14:07:14;24.80;62.10
354;DHT22;165;53.592;10.044;2022-07-11T14:09:40;24.70;63.20
354;DHT22;165;53.592;10.044;2022-07-11T14:12:07;24.70;64.40
354;DHT22;165;53.592;10.044;2022-07-11T14:14:33;24.70;64.40
354;DHT22;165;53.592;10.044;2022-07-11T14:16:59;24.80;65.00
354;DHT22;165;53.592;10.044;2022-07-11T14:19:25;24.70;63.80
354;DHT22;165;53.592;10.044;2022-07-11T14:21:52;24.70;63.90
354;DHT22;165;53.592;10.044;2022-07-11T14:24:17;24.70;65.10
354;DHT22;165;53.592;10.044;2022-07-11T14:26:43;24.70;64.60
354;DHT22;165;53.592;10.044;2022-07-11T14:29:09;24.80;64.60
354;DHT22;165;53.592;10.044;2022-07-11T14:31:36;24.90;63.00
354;DHT22;165;53.592;10.044;2022-07-11T14:34:03;24.80;62.10
354;DHT22;165;53.592;10.044;2022-07-11T14:36:28;24.70;64.10
354;DHT22;165;53.592;10.044;2022-07-11T14:38:54;24.80;64.60
354;DHT22;165;53.592;10.044;2022-07-11T14:41:20;24.90;64.40
354;DHT22;165;53.592;10.044;2022-07-11T14:43:47;25.20;64.70
354;DHT22;165;53.592;10.044;2022-07-11T14:46:13;25.40;64.40
354;DHT22;165;53.592;10.044;2022-07-11T14:48:39;25.50;64.40
354;DHT22;165;53.592;10.044;2022-07-11T14:51:05;25.50;64.10
354;DHT22;165;53.592;10.044;2022-07-11T14:53:31;25.50;63.90
354;DHT22;165;53.592;10.044;2022-07-11T14:55:57;25.40;64.90
354;DHT22;165;53.592;10.044;2022-07-11T14:58:23;25.30;64.40
354;DHT22;165;53.592;10.044;2022-07-11T15:00:49;25.40;64.10
354;DHT22;165;53.592;10.044;2022-07-11T15:03:14;25.50;64.40
354;DHT22;165;53.592;10.044;2022-07-11T15:05:59;25.30;64.70
354;DHT22;165;53.592;10.044;2022-07-11T15:08:25;25.30;64.70
354;DHT22;165;53.592;10.044;2022-07-11T15:11:10;25.10;65.70
354;DHT22;165;53.592;10.044;2022-07-11T15:13:54;25.10;66.90
354;DHT22;165;53.592;10.044;2022-07-11T15:16:20;25.00;67.30
354;DHT22;165;53.592;10.044;2022-07-11T15:18:46;25.20;67.50
354;DHT22;165;53.592;10.044;2022-07-11T15:21:12;25.20;67.30
354;DHT22;165;53.592;10.044;2022-07-11T15:23:38;25.10;66.20
354;DHT22;165;53.592;10.044;2022-07-11T15:26:04;24.90;65.80
354;DHT22;165;53.592;10.044;2022-07-11T15:28:29;25.10;66.20
354;DHT22;165;53.592;10.044;2022-07-11T15:30:55;25.20;67.00
354;DHT22;165;53.592;10.044;2022-07-11T15:33:20;25.00;67.30
354;DHT22;165;53.592;10.044;2022-07-11T15:35:50;25.00;68.20
354;DHT22;165;53.592;10.044;2022-07-11T15:38:16;24.70;69.10
354;DHT22;165;53.592;10.044;2022-07-11T15:40:42;24.60;69.20
354;DHT22;165;53.592;10.044;2022-07-11T15:43:07;24.50;69.60
354;DHT22;165;53.592;10.044;2022-07-11T15:45:36;24.40;69.40
354;DHT22;165;53.592;10.044;2022-07-11T15:54:29;24.30;70.60
354;DHT22;165;53.592;10.044;2022-07-11T15:56:55;24.30;72.20
354;DHT22;165;53.592;10.044;2022-07-11T16:02:58;24.60;71.90
354;DHT22;165;53.592;10.044;2022-07-11T16:06:11;24.70;71.50
354;DHT22;165;53.592;10.044;2022-07-11T16:08:57;24.70;69.50
354;DHT22;165;53.592;10.044;2022-07-11T16:30:18;24.70;72.40
354;DHT22;165;53.592;10.044;2022-07-11T16:41:05;24.00;74.70
354;DHT22;165;53.592;10.044;2022-07-11T16:57:59;23.20;81.50
354;DHT22;165;53.592;10.044;2022-07-11T17:07:58;23.10;87.00
354;DHT22;165;53.592;10.044;2022-07-11T17:10:42;23.10;90.10
354;DHT22;165;53.592;10.044;2022-07-11T17:13:07;23.00;90.70
354;DHT22;165;53.592;10.044;2022-07-11T17:15:34;23.00;91.30
354;DHT22;165;53.592;10.044;2022-07-11T17:17:59;23.10;92.00
354;DHT22;165;53.592;10.044;2022-07-11T17:20:25;23.10;93.80
354;DHT22;165;53.592;10.044;2022-07-11T17:22:50;23.00;96.10
354;DHT22;165;53.592;10.044;2022-07-11T17:25:16;22.80;98.40
354;DHT22;165;53.592;10.044;2022-07-11T17:27:42;22.60;99.90
354;DHT22;165;53.592;10.044;2022-07-11T17:30:09;22.50;99.90
354;DHT22;165;53.592;10.044;2022-07-11T17:32:35;22.30;99.90
354;DHT22;165;53.592;10.044;2022-07-11T17:35:01;22.30;99.90
354;DHT22;165;53.592;10.044;2022-07-11T17:37:27;22.20;99.90
354;DHT22;165;53.592;10.044;2022-07-11T17:39:53;22.10;99.90
354;DHT22;165;53.592;10.044;2022-07-11T17:42:19;22.00;99.90
354;DHT22;165;53.592;10.044;2022-07-11T17:44:44;22.00;99.90
354;DHT22;165;53.592;10.044;2022-07-11T17:47:10;22.00;99.90
354;DHT22;165;53.592;10.044;2022-07-11T17:49:35;21.90;99.90
354;DHT22;165;53.592;10.044;2022-07-11T17:52:01;21.70;99.90
354;DHT22;165;53.592;10.044;2022-07-11T17:54:26;22.10;99.90
354;DHT22;165;53.592;10.044;2022-07-11T17:56:52;22.10;99.90
354;DHT22;165;53.592;10.044;2022-07-11T17:59:18;21.80;99.90